Terminal Aerodrome Forecast
Issued by NWS

Home | Current Version | Previous Version | Text Only | Print | Product List | Glossary On
Versions: 1 2 3 4 5 6 7 8 9 10 11 12 13 14 15 16
981
FTUS43 KDLH 280535
TAFHIB
TAF
KHIB 280535Z 2806/2906 30006KT P6SM VCSH BKN025 OVC050
      TEMPO 2806/2810 6SM -SHSN SCT015 OVC050
     FM281500 32012G19KT P6SM SCT015 OVC030
     FM282300 34010KT P6SM BKN035
     FM290200 34003KT P6SM SCT035=

USA.gov is the U.S. government's official web portal to all federal, state and local government web resources and services.